createdAt,value
2023-08-15T00:00:44.443Z,86.54
2023-08-15T00:01:44.386Z,86.04
2023-08-15T00:02:44.446Z,86.64
2023-08-15T00:03:44.408Z,86.24
2023-08-15T00:04:44.345Z,86.29
2023-08-15T00:05:44.339Z,86.44
2023-08-15T00:06:44.327Z,86.79
2023-08-15T00:07:44.317Z,86.44
2023-08-15T00:08:44.339Z,86.68
2023-08-15T00:09:44.322Z,86.24
2023-08-15T00:10:44.283Z,86.34
2023-08-15T00:11:44.274Z,86.49
2023-08-15T00:12:44.268Z,86.68
2023-08-15T00:13:44.319Z,86.49
2023-08-15T00:14:44.240Z,86.98
2023-08-15T00:15:44.230Z,86.94
2023-08-15T00:16:44.264Z,86.88
2023-08-15T00:17:44.229Z,86.93
2023-08-15T00:18:44.237Z,87.28
2023-08-15T00:19:44.186Z,86.79
2023-08-15T00:20:44.187Z,86.98
2023-08-15T00:21:44.156Z,87.08
2023-08-15T00:22:44.177Z,87.28
2023-08-15T00:23:44.133Z,86.58
2023-08-15T00:24:44.198Z,87.08
2023-08-15T00:25:44.142Z,86.88
2023-08-15T00:26:44.105Z,87.28
2023-08-15T00:27:44.095Z,86.98
2023-08-15T00:28:44.088Z,86.79
2023-08-15T00:29:44.099Z,86.79
2023-08-15T00:30:44.086Z,86.79
2023-08-15T00:31:44.052Z,86.72
2023-08-15T00:32:44.059Z,86.82
2023-08-15T00:33:44.058Z,87.08
2023-08-15T00:34:44.034Z,87.62
2023-08-15T00:35:44.005Z,87.48
2023-08-15T00:36:43.992Z,87.23
2023-08-15T00:37:43.983Z,87.32
2023-08-15T00:38:43.995Z,87.32
2023-08-15T00:39:43.986Z,86.93
2023-08-15T00:40:43.946Z,87.12
2023-08-15T00:41:43.963Z,87.52
2023-08-15T00:42:43.923Z,87.42
2023-08-15T00:43:43.919Z,87.52
2023-08-15T00:44:43.971Z,87.57
2023-08-15T00:45:43.895Z,87.52
2023-08-15T00:46:43.945Z,87.32
2023-08-15T00:47:43.891Z,87.42
2023-08-15T00:48:43.970Z,87.12
2023-08-15T00:49:43.885Z,87.73
2023-08-15T00:50:43.841Z,87.52
2023-08-15T00:51:43.830Z,87.32
2023-08-15T00:52:43.812Z,87.23
2023-08-15T00:53:43.826Z,87.52
2023-08-15T00:54:43.808Z,87.73
2023-08-15T00:55:43.795Z,87.62
2023-08-15T00:56:43.766Z,88.22
2023-08-15T00:57:43.837Z,87.82
2023-08-15T00:58:43.744Z,88.42
2023-08-15T00:59:43.789Z,88.22
2023-08-15T01:00:43.729Z,88.02
2023-08-15T01:01:43.748Z,88.02
2023-08-15T01:02:43.793Z,88.02
2023-08-15T01:03:43.782Z,88.32
2023-08-15T01:04:43.728Z,88.32
2023-08-15T01:05:43.683Z,88.02
2023-08-15T01:06:43.659Z,88.32
2023-08-15T01:07:43.649Z,88.26
2023-08-15T01:08:43.648Z,88.12
2023-08-15T01:09:43.658Z,87.87
2023-08-15T01:10:43.613Z,87.96
2023-08-15T01:11:43.609Z,88.76
2023-08-15T01:12:43.598Z,88.12
2023-08-15T01:13:43.606Z,88.06
2023-08-15T01:14:43.593Z,88.26
2023-08-15T01:15:43.555Z,88.67
2023-08-15T01:16:43.590Z,88.56
2023-08-15T01:17:43.564Z,88.56
2023-08-15T01:18:43.521Z,88.06
2023-08-15T01:19:43.834Z,88.60
2023-08-15T01:20:43.521Z,88.67
2023-08-15T01:21:43.494Z,88.46
2023-08-15T01:22:43.477Z,88.46
2023-08-15T01:23:43.472Z,88.31
2023-08-15T01:24:43.481Z,88.46
2023-08-15T01:25:43.474Z,88.56
2023-08-15T01:26:43.435Z,88.10
2023-08-15T01:27:43.421Z,88.31
2023-08-15T01:28:43.408Z,88.31
2023-08-15T01:29:43.443Z,89.31
2023-08-15T01:30:43.386Z,89.51
2023-08-15T01:31:43.401Z,89.01
2023-08-15T01:32:43.386Z,89.51
2023-08-15T01:33:43.347Z,89.51
2023-08-15T01:34:43.357Z,89.40
2023-08-15T01:35:43.327Z,89.70
2023-08-15T01:36:43.318Z,89.75
2023-08-15T01:37:43.305Z,90.25
2023-08-15T01:38:43.305Z,90.05
2023-08-15T01:39:43.372Z,90.05
2023-08-15T01:40:43.271Z,89.95
2023-08-15T01:41:43.258Z,90.05
2023-08-15T01:42:43.264Z,90.11
2023-08-15T01:43:43.241Z,90.11
2023-08-15T01:44:43.264Z,90.35
2023-08-15T01:45:43.297Z,89.95
2023-08-15T01:46:43.210Z,90.25
2023-08-15T01:47:43.226Z,89.45
2023-08-15T01:48:43.188Z,89.90
2023-08-15T01:49:43.173Z,90.00
2023-08-15T01:50:43.217Z,90.11
2023-08-15T01:51:43.146Z,89.40
2023-08-15T01:52:43.135Z,90.20
2023-08-15T01:53:43.160Z,89.40
2023-08-15T01:54:43.121Z,90.35
2023-08-15T01:55:43.099Z,90.11
2023-08-15T01:56:43.088Z,90.00
2023-08-15T01:57:43.092Z,90.00
2023-08-15T01:58:43.080Z,90.15
2023-08-15T01:59:43.082Z,90.11
2023-08-15T02:00:43.069Z,89.55
2023-08-15T02:01:43.130Z,89.90
2023-08-15T02:02:43.156Z,90.11
2023-08-15T02:03:43.034Z,90.15
2023-08-15T02:04:43.007Z,90.11
2023-08-15T02:05:43.020Z,90.11
2023-08-15T02:06:42.990Z,90.20
2023-08-15T02:07:42.976Z,89.90
2023-08-15T02:08:42.988Z,89.70
2023-08-15T02:09:42.967Z,89.31
2023-08-15T02:10:42.992Z,89.40
2023-08-15T02:11:42.940Z,89.20
2023-08-15T02:12:42.926Z,89.20
2023-08-15T02:13:42.907Z,89.40
2023-08-15T02:14:42.903Z,89.51
2023-08-15T02:15:42.957Z,89.40
2023-08-15T02:16:42.875Z,89.20
2023-08-15T02:17:42.917Z,89.01
2023-08-15T02:18:42.843Z,89.20
2023-08-15T02:19:42.861Z,88.90
2023-08-15T02:20:42.842Z,88.96
2023-08-15T02:21:42.811Z,89.40
2023-08-15T02:22:42.798Z,89.31
2023-08-15T02:23:42.798Z,89.06
2023-08-15T02:24:42.776Z,89.31
2023-08-15T02:25:42.779Z,89.01
2023-08-15T02:26:42.772Z,89.20
2023-08-15T02:27:42.743Z,89.06
2023-08-15T02:28:42.746Z,88.86
2023-08-15T02:29:42.733Z,89.16
2023-08-15T02:30:42.748Z,89.20
2023-08-15T02:31:42.707Z,89.47
2023-08-15T02:32:42.725Z,89.26
2023-08-15T02:33:42.735Z,89.26
2023-08-15T02:34:42.666Z,89.06
2023-08-15T02:35:42.696Z,89.26
2023-08-15T02:36:42.640Z,89.26
2023-08-15T02:37:42.638Z,89.92
2023-08-15T02:38:42.671Z,90.16
2023-08-15T02:39:42.611Z,91.06
2023-08-15T02:40:42.645Z,92.16
2023-08-15T02:41:42.592Z,92.16
2023-08-15T02:42:42.575Z,92.46
2023-08-15T02:43:42.574Z,92.96
2023-08-15T02:44:42.551Z,93.20
2023-08-15T02:45:42.539Z,93.26
2023-08-15T02:46:42.599Z,93.10
2023-08-15T02:47:42.576Z,92.86
2023-08-15T02:48:42.521Z,92.86
2023-08-15T02:49:42.527Z,92.76
2023-08-15T02:50:42.486Z,93.10
2023-08-15T02:51:42.495Z,93.00
2023-08-15T02:52:42.482Z,93.50
2023-08-15T02:53:42.450Z,92.70
2023-08-15T02:54:42.451Z,93.40
2023-08-15T02:55:42.433Z,93.10
2023-08-15T02:56:42.436Z,93.70
2023-08-15T02:57:42.424Z,94.10
2023-08-15T02:58:42.412Z,93.60
2023-08-15T02:59:42.389Z,93.90
2023-08-15T03:00:42.407Z,93.90
2023-08-15T03:01:42.435Z,94.10
2023-08-15T03:02:42.545Z,93.90
2023-08-15T03:03:42.343Z,93.90
2023-08-15T03:04:42.336Z,94.40
2023-08-15T03:05:42.350Z,94.50
2023-08-15T03:06:42.313Z,95.00
2023-08-15T03:07:42.300Z,95.60
2023-08-15T03:08:42.333Z,95.50
2023-08-15T03:09:42.272Z,95.10
2023-08-15T03:10:42.275Z,95.64
2023-08-15T03:11:42.295Z,95.95
2023-08-15T03:12:42.255Z,96.04
2023-08-15T03:13:42.238Z,96.49
2023-08-15T03:14:42.223Z,96.09
2023-08-15T03:15:42.235Z,96.79
2023-08-15T03:16:42.236Z,96.99
2023-08-15T03:17:42.254Z,97.19
2023-08-15T03:18:42.181Z,97.49
2023-08-15T03:19:42.168Z,97.49
2023-08-15T03:20:42.168Z,97.49
2023-08-15T03:21:42.168Z,97.24
2023-08-15T03:22:42.162Z,97.39
2023-08-15T03:23:42.130Z,97.39
2023-08-15T03:24:42.125Z,97.29
2023-08-15T03:25:42.102Z,97.49
2023-08-15T03:26:42.103Z,97.34
2023-08-15T03:27:42.083Z,97.89
2023-08-15T03:28:42.072Z,97.64
2023-08-15T03:29:42.081Z,97.69
2023-08-15T03:30:42.119Z,97.59
2023-08-15T03:31:42.097Z,98.39
2023-08-15T03:32:42.101Z,98.74
2023-08-15T03:33:42.018Z,98.64
2023-08-15T03:34:42.007Z,98.09
2023-08-15T03:35:42.005Z,98.33
2023-08-15T03:36:42.007Z,98.24
2023-08-15T03:37:41.996Z,98.64
2023-08-15T03:38:41.963Z,98.74
2023-08-15T03:39:41.984Z,98.54
2023-08-15T03:40:41.941Z,98.54
2023-08-15T03:41:41.933Z,98.94
2023-08-15T03:42:41.936Z,98.64
2023-08-15T03:43:41.908Z,98.94
2023-08-15T03:44:41.897Z,98.83
2023-08-15T03:45:41.947Z,98.94
2023-08-15T03:46:41.996Z,99.44
2023-08-15T03:47:41.929Z,99.64
2023-08-15T03:48:41.856Z,99.04
2023-08-15T03:49:41.842Z,99.24
2023-08-15T03:50:41.830Z,99.44
2023-08-15T03:51:47.161Z,99.74
2023-08-15T03:52:42.827Z,99.33
2023-08-15T03:53:41.823Z,99.54
2023-08-15T03:54:41.789Z,99.44
2023-08-15T03:55:41.782Z,99.54
2023-08-15T03:56:41.770Z,99.68
2023-08-15T03:57:41.769Z,99.99
2023-08-15T03:58:41.742Z,99.99
2023-08-15T03:59:41.740Z,99.99
2023-08-15T04:00:41.731Z,99.99
2023-08-15T04:01:41.802Z,99.99
2023-08-15T04:02:41.729Z,99.99
2023-08-15T04:03:41.726Z,99.99
2023-08-15T04:04:41.681Z,99.99
2023-08-15T04:05:41.667Z,99.99
2023-08-15T04:06:41.656Z,99.99
2023-08-15T04:07:41.663Z,99.99
2023-08-15T04:08:41.639Z,99.99
2023-08-15T04:09:41.639Z,99.99
2023-08-15T04:10:41.624Z,99.99
2023-08-15T04:11:41.600Z,99.99
2023-08-15T04:12:41.589Z,99.99
2023-08-15T04:13:41.621Z,99.99
2023-08-15T04:14:41.568Z,99.99
2023-08-15T04:15:41.557Z,99.99
2023-08-15T04:16:41.621Z,99.99
2023-08-15T04:17:41.565Z,99.99
2023-08-15T04:18:41.535Z,99.99
2023-08-15T04:19:41.510Z,99.99
2023-08-15T04:20:41.507Z,99.99
2023-08-15T04:21:41.492Z,99.99
2023-08-15T04:22:41.498Z,99.99
2023-08-15T04:23:41.470Z,99.99
2023-08-15T04:24:41.479Z,99.99
2023-08-15T04:25:41.581Z,99.99
2023-08-15T04:26:41.438Z,99.99
2023-08-15T04:27:41.430Z,99.88
2023-08-15T04:28:41.435Z,99.99
2023-08-15T04:29:41.407Z,99.99
2023-08-15T04:30:41.424Z,99.99
2023-08-15T04:31:41.501Z,99.99
2023-08-15T04:32:41.385Z,99.99
2023-08-15T04:33:41.381Z,99.99
2023-08-15T04:34:41.357Z,99.63
2023-08-15T04:35:41.347Z,99.99
2023-08-15T04:36:41.329Z,99.73
2023-08-15T04:37:41.317Z,99.84
2023-08-15T04:38:41.305Z,99.43
2023-08-15T04:39:41.313Z,99.43
2023-08-15T04:40:41.424Z,99.48
2023-08-15T04:41:41.305Z,99.58
2023-08-15T04:42:41.264Z,98.98
2023-08-15T04:43:41.248Z,99.18
2023-08-15T04:44:41.239Z,98.93
2023-08-15T04:45:41.276Z,98.78
2023-08-15T04:46:41.227Z,98.88
2023-08-15T04:47:41.266Z,98.88
2023-08-15T04:48:41.199Z,98.88
2023-08-15T04:49:41.191Z,98.82
2023-08-15T04:50:41.199Z,99.08
2023-08-15T04:51:41.199Z,98.98
2023-08-15T04:52:41.169Z,98.88
2023-08-15T04:53:41.139Z,98.98
2023-08-15T04:54:41.141Z,99.22
2023-08-15T04:55:41.141Z,98.98
2023-08-15T04:56:41.107Z,98.98
2023-08-15T04:57:41.122Z,99.18
2023-08-15T04:58:41.098Z,98.98
2023-08-15T04:59:41.074Z,99.28
2023-08-15T05:00:41.060Z,98.78
2023-08-15T05:01:41.115Z,98.98
2023-08-15T05:02:41.060Z,98.98
2023-08-15T05:03:41.027Z,98.98
2023-08-15T05:04:41.017Z,99.02
2023-08-15T05:05:41.067Z,98.68
2023-08-15T05:06:41.012Z,98.78
2023-08-15T05:07:40.984Z,98.43
2023-08-15T05:08:40.984Z,98.58
2023-08-15T05:09:40.962Z,98.52
2023-08-15T05:10:40.969Z,98.43
2023-08-15T05:11:40.969Z,98.43
2023-08-15T05:12:40.939Z,98.82
2023-08-15T05:13:40.950Z,98.82
2023-08-15T05:14:40.908Z,98.43
2023-08-15T05:15:40.940Z,98.43
2023-08-15T05:16:40.888Z,98.22
2023-08-15T05:17:40.937Z,98.72
2023-08-15T05:18:40.861Z,98.72
2023-08-15T05:19:40.866Z,98.72
2023-08-15T05:20:40.841Z,99.02
2023-08-15T05:21:40.831Z,99.02
2023-08-15T05:22:40.831Z,98.93
2023-08-15T05:23:40.823Z,98.37
2023-08-15T05:24:40.802Z,98.63
2023-08-15T05:25:40.788Z,98.82
2023-08-15T05:26:40.886Z,98.67
2023-08-15T05:27:40.762Z,98.57
2023-08-15T05:28:40.785Z,98.67
2023-08-15T05:29:40.772Z,98.52
2023-08-15T05:30:40.730Z,98.63
2023-08-15T05:31:40.747Z,99.02
2023-08-15T05:32:40.744Z,98.63
2023-08-15T05:33:40.710Z,98.63
2023-08-15T05:34:40.681Z,98.72
2023-08-15T05:35:40.684Z,98.63
2023-08-15T05:36:40.666Z,98.63
2023-08-15T05:37:40.650Z,98.13
2023-08-15T05:38:40.660Z,97.82
2023-08-15T05:39:40.632Z,98.02
2023-08-15T05:40:40.706Z,98.32
2023-08-15T05:41:40.608Z,97.87
2023-08-15T05:42:40.607Z,97.72
2023-08-15T05:43:40.616Z,97.72
2023-08-15T05:44:40.568Z,97.62
2023-08-15T05:45:40.595Z,98.13
2023-08-15T05:46:40.591Z,97.52
2023-08-15T05:47:40.565Z,97.72
2023-08-15T05:48:40.548Z,97.62
2023-08-15T05:49:40.562Z,97.82
2023-08-15T05:50:40.533Z,97.72
2023-08-15T05:51:40.500Z,98.22
2023-08-15T05:52:40.482Z,97.92
2023-08-15T05:53:40.488Z,98.08
2023-08-15T05:54:40.463Z,97.88
2023-08-15T05:55:40.451Z,97.67
2023-08-15T05:56:40.436Z,97.58
2023-08-15T05:57:40.425Z,97.28
2023-08-15T05:58:40.436Z,97.38
2023-08-15T05:59:40.415Z,97.58
2023-08-15T06:00:40.419Z,97.17
2023-08-15T06:01:40.413Z,97.17
2023-08-15T06:02:40.538Z,97.08
2023-08-15T06:03:51.872Z,96.58
2023-08-15T06:04:41.424Z,96.88
2023-08-15T06:05:40.343Z,96.08
2023-08-15T06:06:40.326Z,96.37
2023-08-15T06:07:40.316Z,96.37
2023-08-15T06:08:40.324Z,96.37
2023-08-15T06:09:40.294Z,96.88
2023-08-15T06:10:40.279Z,96.63
2023-08-15T06:11:40.286Z,96.33
2023-08-15T06:12:40.256Z,96.47
2023-08-15T06:13:40.264Z,95.93
2023-08-15T06:14:40.247Z,96.23
2023-08-15T06:15:40.230Z,96.63
2023-08-15T06:16:40.236Z,96.33
2023-08-15T06:17:40.351Z,96.03
2023-08-15T06:18:40.246Z,96.23
2023-08-15T06:19:40.183Z,96.13
2023-08-15T06:20:40.174Z,95.93
2023-08-15T06:21:40.162Z,95.62
2023-08-15T06:22:40.155Z,96.13
2023-08-15T06:23:40.197Z,95.32
2023-08-15T06:24:40.126Z,95.32
2023-08-15T06:25:40.119Z,95.83
2023-08-15T06:26:40.121Z,96.58
2023-08-15T06:27:40.095Z,96.34
2023-08-15T06:28:40.102Z,96.44
2023-08-15T06:29:40.101Z,96.19
2023-08-15T06:30:40.082Z,95.29
2023-08-15T06:31:40.054Z,94.19
2023-08-15T06:32:40.265Z,93.99
2023-08-15T06:33:40.158Z,92.89
2023-08-15T06:34:40.022Z,93.19
2023-08-15T06:35:40.017Z,94.69
2023-08-15T06:36:39.999Z,92.99
2023-08-15T06:37:39.986Z,93.29
2023-08-15T06:38:40.020Z,92.49
2023-08-15T06:39:39.963Z,93.39
2023-08-15T06:40:39.957Z,93.99
2023-08-15T06:41:39.948Z,93.19
2023-08-15T06:42:39.930Z,93.99
2023-08-15T06:43:39.927Z,93.99
2023-08-15T06:44:39.921Z,93.69
2023-08-15T06:45:39.895Z,93.19
2023-08-15T06:46:39.906Z,92.99
2023-08-15T06:47:39.914Z,94.19
2023-08-15T06:48:39.862Z,93.74
2023-08-15T06:49:39.883Z,93.44
2023-08-15T06:50:39.837Z,92.75
2023-08-15T06:51:39.836Z,91.95
2023-08-15T06:52:39.834Z,91.64
2023-08-15T06:53:39.840Z,91.55
2023-08-15T06:54:39.806Z,91.25
2023-08-15T06:55:39.784Z,91.45
2023-08-15T06:56:39.771Z,91.40
2023-08-15T06:57:40.557Z,92.00
2023-08-15T06:58:39.770Z,92.40
2023-08-15T06:59:39.875Z,92.20
2023-08-15T07:00:39.754Z,91.56
2023-08-15T07:01:39.726Z,90.86
2023-08-15T07:02:40.140Z,91.36
2023-08-15T07:03:39.850Z,91.16
2023-08-15T07:04:39.695Z,91.31
2023-08-15T07:05:39.723Z,91.56
2023-08-15T07:06:39.662Z,90.92
2023-08-15T07:07:39.654Z,90.92
2023-08-15T07:08:39.642Z,91.07
2023-08-15T07:09:39.657Z,90.37
2023-08-15T07:10:39.614Z,90.17
2023-08-15T07:11:39.607Z,90.67
2023-08-15T07:12:39.600Z,90.58
2023-08-15T07:13:39.586Z,89.98
2023-08-15T07:14:39.595Z,90.17
2023-08-15T07:15:39.563Z,89.64
2023-08-15T07:16:39.576Z,89.94
2023-08-15T07:17:39.620Z,89.79
2023-08-15T07:18:39.530Z,88.59
2023-08-15T07:19:39.544Z,88.29
2023-08-15T07:20:40.124Z,87.00
2023-08-15T07:21:39.516Z,86.80
2023-08-15T07:22:39.479Z,86.46
2023-08-15T07:23:39.486Z,86.96
2023-08-15T07:24:39.527Z,87.26
2023-08-15T07:25:39.466Z,86.46
2023-08-15T07:26:39.789Z,85.96
2023-08-15T07:27:39.432Z,84.86
2023-08-15T07:28:39.415Z,84.61
2023-08-15T07:29:39.427Z,86.34
2023-08-15T07:30:39.391Z,86.44
2023-08-15T07:31:39.430Z,87.04
2023-08-15T07:32:39.392Z,87.20
2023-08-15T07:33:39.364Z,86.80
2023-08-15T07:34:39.363Z,86.90
2023-08-15T07:35:39.339Z,87.40
2023-08-15T07:36:39.329Z,87.05
2023-08-15T07:37:39.351Z,86.50
2023-08-15T07:38:39.311Z,86.76
2023-08-15T07:39:39.305Z,86.46
2023-08-15T07:40:39.281Z,86.36
2023-08-15T07:41:39.278Z,85.57
2023-08-15T07:42:39.263Z,84.67
2023-08-15T07:43:39.251Z,84.91
2023-08-15T07:44:39.266Z,85.14
2023-08-15T07:45:39.267Z,86.04
2023-08-15T07:46:39.219Z,85.74
2023-08-15T07:47:39.233Z,86.29
2023-08-15T07:48:39.218Z,86.68
2023-08-15T07:49:39.557Z,86.79
2023-08-15T07:50:39.225Z,87.42
2023-08-15T07:51:39.166Z,87.23
2023-08-15T07:52:39.152Z,87.82
2023-08-15T07:53:39.188Z,87.62
2023-08-15T07:54:39.145Z,88.22
2023-08-15T07:55:39.119Z,88.32
2023-08-15T07:56:39.117Z,87.98
2023-08-15T07:57:39.112Z,88.32
2023-08-15T07:58:39.089Z,88.38
2023-08-15T07:59:39.103Z,89.18
2023-08-15T08:00:39.065Z,88.58
2023-08-15T08:01:39.073Z,88.34
2023-08-15T08:02:39.090Z,88.54
2023-08-15T08:03:39.038Z,88.54
2023-08-15T08:04:39.053Z,87.60
2023-08-15T08:05:39.048Z,86.50
2023-08-15T08:06:40.918Z,85.90
2023-08-15T08:07:38.994Z,85.85
2023-08-15T08:08:38.982Z,86.54
2023-08-15T08:09:39.040Z,86.44
2023-08-15T08:10:38.963Z,87.04
2023-08-15T08:11:38.951Z,87.44
2023-08-15T08:12:38.968Z,87.24
2023-08-15T08:13:38.940Z,86.70
2023-08-15T08:14:45.001Z,87.00
2023-08-15T08:15:39.902Z,86.40
2023-08-15T08:16:38.897Z,85.96
2023-08-15T08:17:39.066Z,85.16
2023-08-15T08:18:38.877Z,84.86
2023-08-15T08:19:38.867Z,84.63
2023-08-15T08:20:38.879Z,84.37
2023-08-15T08:21:38.847Z,84.13
2023-08-15T08:22:38.829Z,84.58
2023-08-15T08:23:38.828Z,84.45
2023-08-15T08:24:38.809Z,85.04
2023-08-15T08:25:38.828Z,84.20
2023-08-15T08:26:38.784Z,83.71
2023-08-15T08:27:38.780Z,84.01
2023-08-15T08:28:38.757Z,83.51
2023-08-15T08:29:38.748Z,83.27
2023-08-15T08:30:38.819Z,82.48
2023-08-15T08:31:38.807Z,83.21
2023-08-15T08:32:38.743Z,83.01
2023-08-15T08:33:38.709Z,83.51
2023-08-15T08:34:38.691Z,84.31
2023-08-15T08:35:38.705Z,83.47
2023-08-15T08:36:38.679Z,83.07
2023-08-15T08:37:38.687Z,82.18
2023-08-15T08:38:38.650Z,82.97
2023-08-15T08:39:38.640Z,83.27
2023-08-15T08:40:38.650Z,83.17
2023-08-15T08:41:38.686Z,82.97
2023-08-15T08:42:38.605Z,82.68
2023-08-15T08:43:38.601Z,82.28
2023-08-15T08:44:38.587Z,82.48
2023-08-15T08:45:38.628Z,82.48
2023-08-15T08:46:38.578Z,81.58
2023-08-15T08:47:38.555Z,81.34
2023-08-15T08:48:39.300Z,81.05
2023-08-15T08:49:38.529Z,80.35
2023-08-15T08:50:38.541Z,81.24
2023-08-15T08:51:38.525Z,80.55
2023-08-15T08:52:38.517Z,79.90
2023-08-15T08:53:38.497Z,80.35
2023-08-15T08:54:55.951Z,81.48
2023-08-15T08:55:39.488Z,81.09
2023-08-15T08:56:38.455Z,81.18
2023-08-15T08:57:38.496Z,81.09
2023-08-15T08:58:38.438Z,81.48
2023-08-15T08:59:38.420Z,81.48
2023-08-15T09:00:38.445Z,81.68
2023-08-15T09:01:38.502Z,81.58
2023-08-15T09:02:38.474Z,81.48
2023-08-15T09:03:38.437Z,82.04
2023-08-15T09:04:38.364Z,81.18
2023-08-15T09:05:38.393Z,82.04
2023-08-15T09:06:38.350Z,81.29
2023-08-15T09:07:38.331Z,80.59
2023-08-15T09:08:38.321Z,79.85
2023-08-15T09:09:38.312Z,80.09
2023-08-15T09:10:38.361Z,81.48
2023-08-15T09:11:38.290Z,80.69
2023-08-15T09:12:38.298Z,81.32
2023-08-15T09:13:38.340Z,81.09
2023-08-15T09:14:38.262Z,80.43
2023-08-15T09:15:38.361Z,80.83
2023-08-15T09:16:38.239Z,81.12
2023-08-15T09:17:38.275Z,81.72
2023-08-15T09:18:38.208Z,81.48
2023-08-15T09:19:38.215Z,81.18
2023-08-15T09:20:38.222Z,81.38
2023-08-15T09:21:38.183Z,81.38
2023-08-15T09:22:38.166Z,81.48
2023-08-15T09:23:38.161Z,81.48
2023-08-15T09:24:38.149Z,81.34
2023-08-15T09:25:38.299Z,81.45
2023-08-15T09:26:38.154Z,81.05
2023-08-15T09:27:38.151Z,80.65
2023-08-15T09:28:38.117Z,80.31
2023-08-15T09:29:38.111Z,80.41
2023-08-15T09:30:38.131Z,78.99
2023-08-15T09:31:38.128Z,79.08
2023-08-15T09:32:38.099Z,78.78
2023-08-15T09:33:38.082Z,78.78
2023-08-15T09:34:38.500Z,78.49
2023-08-15T09:35:49.161Z,78.19
2023-08-15T09:36:39.180Z,77.59
2023-08-15T09:37:38.009Z,77.80
2023-08-15T09:38:38.019Z,78.09
2023-08-15T09:39:37.983Z,78.29
2023-08-15T09:40:38.002Z,78.59
2023-08-15T09:41:37.960Z,77.50
2023-08-15T09:42:37.958Z,78.69
2023-08-15T09:43:37.948Z,77.89
2023-08-15T09:44:37.937Z,77.40
2023-08-15T09:45:37.956Z,77.99
2023-08-15T09:46:37.944Z,77.59
2023-08-15T09:47:37.978Z,77.66
2023-08-15T09:48:37.922Z,76.90
2023-08-15T09:49:37.887Z,75.97
2023-08-15T09:50:37.949Z,76.31
2023-08-15T09:51:37.861Z,76.40
2023-08-15T09:52:37.842Z,77.29
2023-08-15T09:53:37.831Z,76.31
2023-08-15T09:54:37.818Z,76.31
2023-08-15T09:55:37.820Z,76.31
2023-08-15T09:56:37.900Z,75.71
2023-08-15T09:57:37.786Z,75.91
2023-08-15T09:58:37.813Z,76.31
2023-08-15T09:59:37.772Z,76.80
2023-08-15T10:00:37.767Z,76.90
2023-08-15T10:01:37.799Z,77.20
2023-08-15T10:02:37.759Z,76.25
2023-08-15T10:03:37.753Z,75.84
2023-08-15T10:04:37.708Z,75.45
2023-08-15T10:05:37.704Z,75.65
2023-08-15T10:06:37.712Z,76.25
2023-08-15T10:07:37.703Z,76.28
2023-08-15T10:08:37.674Z,75.65
2023-08-15T10:09:37.652Z,76.34
2023-08-15T10:10:37.644Z,75.09
2023-08-15T10:11:37.630Z,75.88
2023-08-15T10:12:37.653Z,77.27
2023-08-15T10:13:37.611Z,77.08
2023-08-15T10:14:37.606Z,77.27
2023-08-15T10:15:37.612Z,77.57
2023-08-15T10:16:37.686Z,77.47
2023-08-15T10:17:37.777Z,77.08
2023-08-15T10:18:37.626Z,77.47
2023-08-15T10:19:37.544Z,77.17
2023-08-15T10:20:37.588Z,77.67
2023-08-15T10:21:37.534Z,77.57
2023-08-15T10:22:37.517Z,77.67
2023-08-15T10:23:37.525Z,77.73
2023-08-15T10:24:37.503Z,77.08
2023-08-15T10:25:37.486Z,76.08
2023-08-15T10:26:37.471Z,77.08
2023-08-15T10:27:37.457Z,76.97
2023-08-15T10:28:37.461Z,76.68
2023-08-15T10:29:37.435Z,76.68
2023-08-15T10:30:37.712Z,78.06
2023-08-15T10:31:37.411Z,77.77
2023-08-15T10:32:37.524Z,77.47
2023-08-15T10:33:37.442Z,77.08
2023-08-15T10:34:37.382Z,77.08
2023-08-15T10:35:37.369Z,75.95
2023-08-15T10:36:37.362Z,76.14
2023-08-15T10:37:37.345Z,76.38
2023-08-15T10:38:37.335Z,77.23
2023-08-15T10:39:37.374Z,75.95
2023-08-15T10:40:37.312Z,77.33
2023-08-15T10:41:37.397Z,77.23
2023-08-15T10:42:37.293Z,76.04
2023-08-15T10:43:37.330Z,75.45
2023-08-15T10:44:37.268Z,75.91
2023-08-15T10:45:37.291Z,75.45
2023-08-15T10:46:37.410Z,75.61
2023-08-15T10:47:37.279Z,77.00
2023-08-15T10:48:41.115Z,75.41
2023-08-15T10:49:38.276Z,75.31
2023-08-15T10:50:37.204Z,76.10
2023-08-15T10:51:37.217Z,76.40
2023-08-15T10:52:37.181Z,76.01
2023-08-15T10:53:37.171Z,76.01
2023-08-15T10:54:37.161Z,76.01
2023-08-15T10:55:37.173Z,75.41
2023-08-15T10:56:37.165Z,76.07
2023-08-15T10:57:37.129Z,75.27
2023-08-15T10:58:37.115Z,75.48
2023-08-15T10:59:37.114Z,75.38
2023-08-15T11:00:37.094Z,74.65
2023-08-15T11:01:37.135Z,75.27
2023-08-15T11:02:37.106Z,75.54
2023-08-15T11:03:37.136Z,75.34
2023-08-15T11:04:37.048Z,74.44
2023-08-15T11:05:37.087Z,75.04
2023-08-15T11:06:37.042Z,74.51
2023-08-15T11:07:37.037Z,73.32
2023-08-15T11:08:37.002Z,73.91
2023-08-15T11:09:36.993Z,72.13
2023-08-15T11:10:36.994Z,73.32
2023-08-15T11:11:37.015Z,73.52
2023-08-15T11:12:36.962Z,73.62
2023-08-15T11:13:36.950Z,73.22
2023-08-15T11:14:36.936Z,73.09
2023-08-15T11:15:36.930Z,73.68
2023-08-15T11:16:36.933Z,73.68
2023-08-15T11:17:36.954Z,73.68
2023-08-15T11:18:36.911Z,72.60
2023-08-15T11:19:36.885Z,71.41
2023-08-15T11:20:36.896Z,71.01
2023-08-15T11:21:36.885Z,70.31
2023-08-15T11:22:36.850Z,71.60
2023-08-15T11:23:36.880Z,73.68
2023-08-15T11:24:36.830Z,72.26
2023-08-15T11:25:36.828Z,73.55
2023-08-15T11:26:36.816Z,73.25
2023-08-15T11:27:36.794Z,71.27
2023-08-15T11:28:36.803Z,70.48
2023-08-15T11:29:36.774Z,70.02
2023-08-15T11:30:36.781Z,70.71
2023-08-15T11:31:36.803Z,70.61
2023-08-15T11:32:36.795Z,70.65
2023-08-15T11:33:36.754Z,71.94
2023-08-15T11:34:36.723Z,72.99
2023-08-15T11:35:36.743Z,73.19
2023-08-15T11:36:36.710Z,73.78
2023-08-15T11:37:36.720Z,73.74
2023-08-15T11:38:36.732Z,71.17
2023-08-15T11:39:36.679Z,70.38
2023-08-15T11:40:36.665Z,70.48
2023-08-15T11:41:36.871Z,70.87
2023-08-15T11:42:36.638Z,71.14
2023-08-15T11:43:36.630Z,70.34
2023-08-15T11:44:36.635Z,70.74
2023-08-15T11:45:36.621Z,69.95
2023-08-15T11:46:51.447Z,69.72
2023-08-15T11:47:37.704Z,69.95
2023-08-15T11:48:36.586Z,69.52
2023-08-15T11:49:45.821Z,69.72
2023-08-15T11:50:44.086Z,70.41
2023-08-15T11:51:37.540Z,70.71
2023-08-15T11:52:36.531Z,70.71
2023-08-15T11:53:36.634Z,70.57
2023-08-15T11:54:36.523Z,71.47
2023-08-15T11:55:36.509Z,69.29
2023-08-15T11:56:36.485Z,68.86
2023-08-15T11:57:36.551Z,69.09
2023-08-15T11:58:36.468Z,68.66
2023-08-15T11:59:36.474Z,69.45
2023-08-15T12:00:36.443Z,70.44
2023-08-15T12:01:36.500Z,70.15
2023-08-15T12:02:36.427Z,69.95
2023-08-15T12:03:36.464Z,70.31
2023-08-15T12:04:36.420Z,70.70
2023-08-15T12:05:36.386Z,69.82
2023-08-15T12:06:36.379Z,68.60
2023-08-15T12:07:36.426Z,68.70
2023-08-15T12:08:36.363Z,67.28
2023-08-15T12:10:36.348Z,67.44
2023-08-15T12:11:36.350Z,66.85
2023-08-15T12:12:36.318Z,65.28
2023-08-15T12:13:36.313Z,65.37
2023-08-15T12:14:49.534Z,64.98
2023-08-15T12:15:37.336Z,65.80
2023-08-15T12:16:36.270Z,66.39
2023-08-15T12:17:36.313Z,65.50
2023-08-15T12:18:36.253Z,65.64
2023-08-15T12:19:36.247Z,67.02
2023-08-15T12:20:36.284Z,68.30
2023-08-15T12:21:36.216Z,67.61
2023-08-15T12:22:36.221Z,68.30
2023-08-15T12:23:36.199Z,68.10
2023-08-15T12:24:36.195Z,68.10
2023-08-15T12:25:36.203Z,68.60
2023-08-15T12:26:36.165Z,68.60
2023-08-15T12:27:36.151Z,67.48
2023-08-15T12:28:36.147Z,67.28
2023-08-15T12:30:12.559Z,67.32
2023-08-15T12:30:37.141Z,67.58
2023-08-15T12:31:36.134Z,66.52
2023-08-15T12:32:36.150Z,67.65
2023-08-15T12:33:44.150Z,66.69
2023-08-15T12:34:37.094Z,67.91
2023-08-15T12:35:36.074Z,68.53
2023-08-15T12:36:36.056Z,70.84
2023-08-15T12:37:36.063Z,70.25
2023-08-15T12:38:36.035Z,71.27
2023-08-15T12:39:36.032Z,71.44
2023-08-15T12:40:36.019Z,71.27
2023-08-15T12:41:36.027Z,71.77
2023-08-15T12:42:35.994Z,71.44
2023-08-15T12:43:35.979Z,71.83
2023-08-15T12:44:35.982Z,72.22
2023-08-15T12:45:35.988Z,72.09
2023-08-15T12:46:35.955Z,72.09
2023-08-15T12:47:37.499Z,72.09
2023-08-15T12:48:35.925Z,70.81
2023-08-15T12:49:35.929Z,70.84
2023-08-15T12:50:35.918Z,71.73
2023-08-15T12:51:35.891Z,70.64
2023-08-15T12:52:35.927Z,70.48
2023-08-15T12:53:35.868Z,70.38